M I D A S
Marine Information and Data Acquisition System
Tripno 2293 of the Zeeleeuw from 2012-04-19 13:09:01 to 2012-04-19 13:09:03
Back to CruiseResearch ActivitiesStationsMapUnderway DataData graphs

EquipmentUnitsComment
TimeDGPSUTC
LatitudeDGPSDM.mWGS84
LongitudeDGPSDM.mWGS84
TemperatureSBE03/SBE38deg celciusITS90
ConductivitySBE21S/mITS90
SalinitySBE21 Practical Salinity Units
ChlorophylAChelsea fluorimeterg/lCalibrated in Aceton
Missing or incorrect values are displayed as -999
Sea surface data collected by the RV Zeeleeuw from 2012-04-19 08:09:03 to 2012-04-19 13:27:47
Time Latitude Longitude Temperature Conductivity Salinity ChlorophylA
2012-04-19 08:10:08 51°26.098 2°48.606 15.4018 0.826626 5.306009 -2.458615
2012-04-19 08:11:08 51°26.108 2°48.557 15.4114 1.038579 6.784822 -2.458615
2012-04-19 08:12:08 51°26.109 2°48.552 15.4131 1.060212 6.93739 -2.458615
2012-04-19 08:13:08 51°26.109 2°48.549 15.4196 1.040742 6.79928 -2.458615
2012-04-19 08:14:08 51°26.109 2°48.546 15.6142 1.047541 6.84703 -2.458615
2012-04-19 08:15:08 51°26.11 2°48.545 15.609 1.005513 6.553641 -2.458615
2012-04-19 08:16:08 51°26.112 2°48.543 15.6395 1.056091 6.908854 -2.458615
2012-04-19 08:17:08 51°26.113 2°48.541 15.6631 1.042597 6.814012 -2.458615
2012-04-19 08:18:08 51°26.115 2°48.538 15.6656 1.025085 6.694576 -2.458615
2012-04-19 08:19:08 51°26.117 2°48.535 15.7304 1.009119 6.583069 -2.458615
2012-04-19 08:20:08 51°26.12 2°48.533 15.7192 1.009737 6.589535 -2.458615
2012-04-19 08:21:08 51°26.122 2°48.532 15.7312 1.022201 6.677703 -2.458615
2012-04-19 08:22:08 51°26.125 2°48.53 15.7482 1.002011 6.536739 -2.458615
2012-04-19 08:23:08 51°26.129 2°48.526 15.7506 1.024158 6.692875 -2.458615
2012-04-19 08:24:07 51°26.131 2°48.524 15.749 1.009119 6.585316 -2.458615
2012-04-19 08:25:07 51°26.134 2°48.524 15.76 0.999436 6.520009 -2.458615
2012-04-19 08:26:08 51°26.135 2°48.525 15.7729 0.996449 6.500012 -2.458615
2012-04-19 08:27:08 51°26.137 2°48.527 15.7762 0.969051 6.310309 -2.458615
2012-04-19 08:28:08 51°26.139 2°48.528 15.7847 0.992432 6.475239 -2.458615
2012-04-19 08:29:08 51°26.142 2°48.529 15.7926 1.00778 6.584397 -2.458615
2012-04-19 08:30:08 51°26.147 2°48.531 15.8 0.993977 6.487204 -2.458615
2012-04-19 08:31:08 51°26.151 2°48.536 15.8072 0.943715 6.136072 -2.458615
2012-04-19 08:32:08 51°26.153 2°48.54 15.8153 0.996655 6.507264 -2.458615
2012-04-19 08:33:07 51°26.156 2°48.544 15.8229 1.039404 6.810755 -2.458615
2012-04-19 08:34:08 51°26.158 2°48.547 15.8285 0.985428 6.433499 -2.458615
2012-04-19 08:35:08 51°26.161 2°48.552 15.8329 0.998716 6.528946 -2.458615
2012-04-19 08:36:08 51°26.164 2°48.556 15.8463 1.015712 6.652113 -2.458615
2012-04-19 08:37:08 51°26.166 2°48.558 15.8499 0.973687 6.35717 -2.458615
2012-04-19 08:38:08 51°26.169 2°48.562 15.8581 0.971627 6.339314 -2.458615
2012-04-19 08:39:08 51°26.172 2°48.567 15.8661 0.993875 6.497095 -2.458615
2012-04-19 08:40:07 51°26.176 2°48.573 15.8637 0.982545 6.422267 -2.458615
2012-04-19 08:41:08 51°26.179 2°48.579 15.875 0.966374 6.309273 -2.458615
2012-04-19 08:42:08 51°26.182 2°48.588 15.8866 0.978322 6.395478 -2.458615
2012-04-19 08:43:08 51°26.184 2°48.596 15.8924 0.999437 6.544857 -2.458615
2012-04-19 08:44:08 51°26.187 2°48.6 15.9109 0.982957 6.431538 -2.458615
2012-04-19 08:45:08 51°26.19 2°48.603 15.907 0.987901 6.467239 -2.458615
2012-04-19 08:46:08 51°26.195 2°48.606 15.9154 0.967713 6.326639 -2.458615
2012-04-19 08:47:08 51°26.2 2°48.609 15.9177 1.007986 6.609586 -2.458615
2012-04-19 08:48:08 51°26.207 2°48.615 15.9239 0.98512 6.448253 -2.458615
2012-04-19 08:49:07 51°26.213 2°48.621 15.9308 1.006441 6.601823 -2.458615
2012-04-19 08:50:08 51°26.218 2°48.63 15.9308 0.978013 6.405636 -2.458615
2012-04-19 08:51:07 51°26.222 2°48.638 15.9441 0.973069 6.372975 -2.458615
2012-04-19 08:52:08 51°26.226 2°48.647 15.934 1.003969 6.590399 -2.458615
2012-04-19 08:53:08 51°26.23 2°48.656 15.9471 1.020141 6.704181 -2.458615
2012-04-19 08:54:08 51°26.235 2°48.665 15.9725 1.006339 6.609425 -2.458615
2012-04-19 08:55:08 51°26.24 2°48.673 15.9763 0.978425 6.416265 -2.458615
2012-04-19 08:56:08 51°26.246 2°48.682 15.9748 0.969567 6.351323 -2.458615
2012-04-19 08:57:08 51°26.252 2°48.693 15.9946 0.986768 6.473086 -2.458615
2012-04-19 08:58:07 51°26.257 2°48.704 15.9943 0.96864 6.3477 -2.458615
2012-04-19 08:59:08 51°26.264 2°48.717 16.005 0.955148 6.255096 -2.458615
2012-04-19 09:00:08 51°26.271 2°48.729 16.0161 0.957311 6.271062 -2.458615
2012-04-19 09:01:08 51°26.276 2°48.744 16.0062 0.955251 6.260377 -2.458615
2012-04-19 09:02:08 51°26.282 2°48.757 16.0295 0.980794 6.441498 -2.458615
2012-04-19 09:03:08 51°26.288 2°48.768 16.0255 0.976365 6.410678 -2.458615
2012-04-19 09:04:08 51°26.295 2°48.781 16.029 1.007369 6.632315 -2.458615
2012-04-19 09:05:08 51°26.301 2°48.795 16.0564 0.965653 6.335969 -2.458615
2012-04-19 09:06:08 51°26.307 2°48.812 16.0625 0.976365 6.415474 -2.458615
2012-04-19 09:07:08 51°26.313 2°48.83 16.0707 0.99336 6.535042 -2.458615
2012-04-19 09:08:08 51°26.318 2°48.85 16.0741 1.012107 6.67181 -2.458615
2012-04-19 09:09:07 51°26.324 2°48.868 16.0612 1.004279 6.618655 -2.458615
2012-04-19 09:10:08 51°26.331 2°48.885 16.0939 0.989446 6.513816 -2.458615
2012-04-19 09:11:08 51°26.34 2°48.9 16.0904 0.901388 5.890834 -2.458615
2012-04-19 09:12:08 51°26.348 2°48.918 16.1064 0.965242 6.345713 -2.458615
2012-04-19 09:13:08 51°26.355 2°48.94 16.1169 0.99058 6.534904 -2.458615
2012-04-19 09:14:08 51°26.363 2°48.96 16.1241 0.960401 6.318021 -2.458615
2012-04-19 09:15:08 51°26.371 2°48.981 16.1122 0.96586 6.359987 -2.458615
2012-04-19 09:16:08 51°26.38 2°48.999 16.1199 0.97204 6.405283 -2.458615
2012-04-19 09:17:08 51°26.389 2°49.015 16.1347 0.984915 6.497673 -2.458615
2012-04-19 09:18:08 51°26.398 2°49.033 16.1553 1.006854 6.652273 -2.458615
2012-04-19 09:19:07 51°26.41 2°49.043 16.1653 0.991816 6.54545 -2.458615
2012-04-19 09:20:08 51°26.419 2°49.021 16.1442 0.978014 6.449661 -2.458615
2012-04-19 09:21:08 51°26.414 2°48.984 16.2032 0.973688 6.426134 -2.458615
2012-04-19 09:22:08 51°26.397 2°48.915 16.1791 0.943201 6.210557 -2.458615
2012-04-19 09:23:08 51°26.377 2°48.831 16.1643 0.969877 6.400544 -2.458615
2012-04-19 09:24:08 51°26.35 2°48.746 16.2009 0.96792 6.387259 -2.458615
2012-04-19 09:25:08 51°26.311 2°48.636 15.4481 0.837131 5.464266 -2.458615
2012-04-19 09:26:08 51°26.229 2°48.434 15.7126 0.907876 5.960935 -2.458615
2012-04-19 09:27:07 51°26.135 2°48.179 15.6892 0.922397 6.063657 -2.458615
2012-04-19 09:28:08 51°26.043 2°47.902 15.7593 0.823024 5.365752 -2.458615
2012-04-19 09:29:08 51°25.939 2°47.647 15.7252 0.914158 6.008783 -2.458615
2012-04-19 09:30:08 51°25.824 2°47.401 15.7533 0.88728 5.823632 -2.458615
2012-04-19 09:31:08 51°25.72 2°47.144 15.719 0.857313 5.619792 -2.458615
2012-04-19 09:32:07 51°25.624 2°46.891 15.7057 0.957312 6.328063 -2.458615
2012-04-19 09:33:08 51°25.514 2°46.647 15.7914 0.969568 6.411343 -2.458615
2012-04-19 09:34:07 51°25.416 2°46.4 15.7768 0.914365 6.025598 -2.458615
2012-04-19 09:35:08 51°25.313 2°46.147 15.7539 0.960917 6.3531 -2.458615
2012-04-19 09:36:08 51°25.201 2°45.911 15.7851 0.976881 6.470053 -2.458615
2012-04-19 09:37:08 51°25.101 2°45.661 15.8012 0.936919 6.184558 -2.458615
2012-04-19 09:38:08 51°25.002 2°45.412 15.8017 0.873481 5.740534 -2.458615
2012-04-19 09:39:08 51°24.893 2°45.175 15.795 0.961329 6.367621 -2.458615
2012-04-19 09:40:08 51°24.789 2°44.931 15.8036 0.909113 5.997558 -2.458615
2012-04-19 09:41:08 51°24.693 2°44.68 15.8155 0.942172 6.232253 -2.458615
2012-04-19 09:42:08 51°24.587 2°44.44 15.8116 0.946395 6.259886 -2.458615
2012-04-19 09:43:08 51°24.48 2°44.203 15.8248 0.94794 6.272099 -2.458615
2012-04-19 09:44:08 51°24.381 2°43.958 15.8262 0.91694 6.055813 -2.458615
2012-04-19 09:45:08 51°24.278 2°43.717 15.8393 0.861227 5.660065 -2.458615
2012-04-19 09:46:08 51°24.17 2°43.485 15.8519 0.951956 6.302907 -2.458615
2012-04-19 09:47:08 51°24.071 2°43.244 15.8334 0.897167 5.915836 -2.458615
2012-04-19 09:48:08 51°23.973 2°43.004 15.8128 0.971217 6.444904 -2.458615
2012-04-19 09:49:08 51°23.869 2°42.77 15.8382 0.965037 6.402261 -2.458615
2012-04-19 09:50:08 51°23.765 2°42.534 15.8479 0.943614 6.249186 -2.458615
2012-04-19 09:51:08 51°23.663 2°42.298 15.846 0.884603 5.831911 -2.458615
2012-04-19 09:52:08 51°23.568 2°42.057 15.8304 0.869465 5.725378 -2.458615
2012-04-19 09:53:08 51°23.465 2°41.828 15.8361 0.988521 6.572838 -2.458615
2012-04-19 09:54:08 51°23.361 2°41.597 15.8474 0.946704 6.277674 -2.458615
2012-04-19 09:55:08 51°23.255 2°41.369 15.8416 0.878939 5.797979 -2.458615
2012-04-19 09:56:08 51°23.136 2°41.161 15.8578 0.904685 5.979723 -2.458615
2012-04-19 09:57:07 51°23.024 2°40.945 15.8616 0.983989 6.549183 -2.458615
2012-04-19 09:58:08 51°22.909 2°40.721 15.8663 0.986976 6.569953 -2.458615
2012-04-19 09:59:07 51°22.799 2°40.504 15.8539 0.881411 5.817883 -2.458615
2012-04-19 10:00:08 51°22.669 2°40.308 15.8594 0.963904 6.406124 -2.458615
2012-04-19 10:01:07 51°22.53 2°40.145 15.8773 1.021998 6.822598 -2.458615
2012-04-19 10:02:08 51°22.385 2°39.977 15.8683 1.076904 7.220892 -2.458615
2012-04-19 10:03:08 51°22.237 2°39.82 15.8705 0.959784 6.380882 -2.458615
2012-04-19 10:04:08 51°22.078 2°39.691 15.8864 0.909113 6.019288 -2.458615
2012-04-19 10:05:08 51°21.898 2°39.649 15.8983 1.243927 8.442032 -2.458615
2012-04-19 10:06:08 51°21.714 2°39.643 15.8926 1.086176 7.300344 -2.458615
2012-04-19 10:07:08 51°21.53 2°39.62 15.9001 1.041364 6.973837 -2.458615
2012-04-19 10:08:08 51°21.349 2°39.575 15.8948 1.092667 7.345682 -2.458615
2012-04-19 10:09:08 51°21.168 2°39.542 15.8948 1.10369 7.430297 -2.458615
2012-04-19 10:10:07 51°20.989 2°39.51 15.9015 1.103793 7.43308 -2.458615
2012-04-19 10:11:08 51°20.804 2°39.471 15.9103 1.082159 7.277339 -2.458615
2012-04-19 10:12:08 51°20.622 2°39.429 15.9056 1.05867 7.110092 -2.458615
2012-04-19 10:13:08 51°20.439 2°39.402 15.9168 1.148508 7.762177 -2.458615
2012-04-19 10:14:08 51°20.259 2°39.36 15.9166 1.030445 6.906124 -2.458615
2012-04-19 10:15:07 51°20.081 2°39.331 15.9186 1.043321 7.00068 -2.458615
2012-04-19 10:16:08 51°19.901 2°39.279 15.922 1.122029 7.573064 -2.458615
2012-04-19 10:17:08 51°19.722 2°39.24 15.9282 1.087722 7.325144 -2.458615
2012-04-19 10:18:08 51°19.545 2°39.203 15.9349 1.067942 7.181463 -2.458615
2012-04-19 10:19:07 51°19.371 2°39.156 15.9354 1.040128 6.98073 -2.458615
2012-04-19 10:20:08 51°19.19 2°39.118 15.9375 1.066706 7.177982 -2.458615
2012-04-19 10:21:08 51°19.011 2°39.08 15.9414 1.045794 7.0264 -2.458615
2012-04-19 10:22:08 51°18.834 2°39.042 15.9384 1.060216 7.129791 -2.458615
2012-04-19 10:23:08 51°18.657 2°39.13 15.9439 1.114714 7.525847 -2.458615
2012-04-19 10:24:08 51°18.48 2°39.245 15.9443 1.250935 8.526758 -2.458615
2012-04-19 10:25:08 51°18.301 2°39.352 15.9492 1.063203 7.153695 -2.458615
2012-04-19 10:26:08 51°18.122 2°39.444 15.9555 1.068869 7.196077 -2.458615
2012-04-19 10:27:08 51°17.942 2°39.528 15.9556 1.141914 7.728604 -2.458615
2012-04-19 10:28:08 51°17.763 2°39.638 15.9642 1.124296 7.600737 -2.458615
2012-04-19 10:29:08 51°17.578 2°39.74 15.9707 1.156133 7.833153 -2.458615
2012-04-19 10:30:08 51°17.39 2°39.835 15.9728 1.057022 7.114588 -2.458615
2012-04-19 10:31:08 51°17.198 2°39.914 15.9806 1.269692 8.669317 -2.458615
2012-04-19 10:32:08 51°17.005 2°39.936 15.9829 1.114818 7.534128 -2.458615
2012-04-19 10:33:08 51°16.813 2°39.987 15.9901 1.246092 8.495575 -2.458615
2012-04-19 10:34:08 51°16.627 2°40.092 15.9882 1.112551 7.519668 -2.458615
2012-04-19 10:35:08 51°16.443 2°40.208 15.9934 1.099776 7.4251 -2.458615
2012-04-19 10:36:08 51°16.261 2°40.317 15.9975 1.322049 9.062503 -2.458615
2012-04-19 10:37:07 51°16.082 2°40.357 15.9969 1.155927 7.837488 -2.458615
2012-04-19 10:38:08 51°15.895 2°40.378 16.0059 1.126975 7.628062 -2.458615
2012-04-19 10:39:08 51°15.713 2°40.361 16.0132 1.126254 7.622495 -2.458615
2012-04-19 10:40:08 51°15.54 2°40.287 16.0169 1.028488 6.912823 -2.458615
2012-04-19 10:41:08 51°15.367 2°40.213 16.0208 1.148097 7.783244 -2.458615
2012-04-19 10:42:07 51°15.198 2°40.142 16.0256 1.121618 7.592815 -2.458615
2012-04-19 10:43:08 51°15.018 2°40.089 16.0278 1.170559 7.948243 -2.458615
2012-04-19 10:44:07 51°14.845 2°40.017 16.034 1.061761 7.154876 -2.458615
2012-04-19 10:45:08 51°14.667 2°39.944 16.038 1.097406 7.414392 -2.458615
2012-04-19 10:46:08 51°14.486 2°39.893 16.041 1.056714 7.118351 -2.458615
2012-04-19 10:47:08 51°14.306 2°39.831 16.0461 1.071651 7.227751 -2.458615
2012-04-19 10:48:08 51°14.126 2°39.767 16.0498 1.416161 9.768144 -2.458615
2012-04-19 10:49:08 51°13.957 2°39.654 16.0522 1.110903 7.513104 -2.458615
2012-04-19 10:50:08 51°13.79 2°39.533 16.0594 1.048266 7.059249 -2.458615
2012-04-19 10:51:08 51°13.619 2°39.428 16.0573 1.129963 7.653196 -2.458615
2012-04-19 10:52:08 51°13.443 2°39.336 16.0645 1.092667 7.380731 -2.458615
2012-04-19 10:53:07 51°13.273 2°39.241 16.0672 1.114715 7.541961 -2.458615
2012-04-19 10:54:08 51°13.12 2°39.086 16.0738 1.076802 7.267075 -2.458615
2012-04-19 10:55:08 51°12.987 2°38.897 16.0808 1.06887 7.210925 -2.458615
2012-04-19 10:56:08 51°12.853 2°38.711 16.086 1.011389 6.792541 -2.458615
2012-04-19 10:57:08 51°12.711 2°38.54 16.0883 1.015509 6.821821 -2.458615
2012-04-19 10:58:08 51°12.566 2°38.373 16.0916 1.023029 6.876937 -2.458615
2012-04-19 10:59:08 51°12.431 2°38.188 16.1026 0.993054 6.659475 -2.458615
2012-04-19 11:00:08 51°12.288 2°38.022 16.1062 1.012213 6.798102 -2.458615
2012-04-19 11:01:08 51°12.143 2°37.854 16.1068 0.984917 6.601118 -2.458615
2012-04-19 11:02:08 51°12 2°37.686 16.0994 1.07299 7.239909 -2.458615
2012-04-19 11:03:08 51°11.867 2°37.499 16.1074 0.977604 6.548743 -2.458615
2012-04-19 11:04:07 51°11.726 2°37.333 16.1103 1.054859 7.109075 -2.458615
2012-04-19 11:05:08 51°11.579 2°37.161 16.1171 1.10163 7.451183 -2.458615
2012-04-19 11:06:08 51°11.441 2°36.979 16.1205 1.026222 6.900882 -2.458615
2012-04-19 11:07:08 51°11.297 2°36.804 16.1183 1.046309 7.049198 -2.458615
2012-04-19 11:08:08 51°11.148 2°36.639 16.1261 1.046 7.04543 -2.458615
2012-04-19 11:09:08 51°11.001 2°36.472 16.1334 1.043013 7.025402 -2.458615
2012-04-19 11:10:08 51°10.863 2°36.287 16.1269 0.993466 6.667428 -2.458615
2012-04-19 11:11:08 51°10.72 2°36.114 16.1325 1.044661 7.0364 -2.458615
2012-04-19 11:12:08 51°10.574 2°35.95 16.1391 1.089783 7.364202 -2.458615
2012-04-19 11:13:08 51°10.439 2°35.77 16.1443 1.039201 6.996498 -2.458615
2012-04-19 11:14:08 51°10.299 2°35.598 16.1495 0.991303 6.653496 -2.458615
2012-04-19 11:15:08 51°10.149 2°35.452 16.1545 0.960403 6.42857 -2.458615
2012-04-19 11:16:08 51°9.97 2°35.475 16.1318 1.021793 6.870954 -2.458615
2012-04-19 11:17:08 51°9.836 2°35.654 16.1307 1.58536 11.04942 -2.458615
2012-04-19 11:18:08 51°9.733 2°35.896 16.1269 1.078038 7.281797 -2.458615
2012-04-19 11:19:08 51°9.637 2°36.153 16.1319 1.057229 7.131758 -2.458615
2012-04-19 11:20:08 51°9.539 2°36.411 16.1393 1.081541 7.311773 -2.458615
2012-04-19 11:21:08 51°9.444 2°36.675 16.1468 1.078451 7.290104 -2.458615
2012-04-19 11:22:08 51°9.348 2°36.942 16.1544 1.086486 7.348847 -2.458615
2012-04-19 11:23:08 51°9.261 2°37.168 16.1622 1.09411 7.405063 -2.458615
2012-04-19 11:24:08 51°9.201 2°37.305 16.1662 1.095964 7.418164 -2.458615
2012-04-19 11:25:08 51°9.164 2°37.337 16.1745 1.077523 7.28435 -2.458615
2012-04-19 11:26:08 51°9.121 2°37.284 16.1787 1.050327 7.08632 -2.458615
2012-04-19 11:27:08 51°9.074 2°37.162 16.1863 0.99223 6.664653 -2.458615
2012-04-19 11:28:08 51°9.024 2°37.077 16.1886 1.002428 6.741639 -2.458615
2012-04-19 11:29:08 51°9.022 2°37.062 16.1893 1.005106 6.757582 -2.458615
2012-04-19 11:30:08 51°9.039 2°37.068 16.3698 1.016642 6.842794 -2.458615
2012-04-19 11:31:08 51°9.059 2°37.082 16.3763 1.003046 6.744655 -2.458615
2012-04-19 11:32:08 51°9.079 2°37.098 16.3881 1.009844 6.794045 -2.458615
2012-04-19 11:33:08 51°9.097 2°37.119 16.3983 1.012831 6.815698 -2.458615
2012-04-19 11:34:08 51°9.115 2°37.144 16.4113 1.011904 6.808977 -2.458615
2012-04-19 11:35:08 51°9.135 2°37.172 16.4246 1.01211 6.810605 -2.458615
2012-04-19 11:36:08 51°9.156 2°37.192 16.4403 0.993775 6.677802 -2.458615
2012-04-19 11:37:09 51°9.173 2°37.198 16.4489 0.990273 6.652724 -2.458615
2012-04-19 11:38:08 51°9.183 2°37.2 16.4613 0.970291 6.508419 -2.458615
2012-04-19 11:39:08 51°9.188 2°37.198 16.4755 0.993157 6.673724 -2.458615
2012-04-19 11:40:08 51°9.186 2°37.18 16.4869 0.978634 6.569079 -2.458615
2012-04-19 11:41:08 51°9.168 2°37.151 16.4999 0.978634 6.569467 -2.458615
2012-04-19 11:42:08 51°9.166 2°37.146 16.5107 0.990479 6.655524 -2.458615
2012-04-19 11:43:08 51°9.174 2°37.148 16.5242 0.979046 6.573221 -2.458615
2012-04-19 11:44:08 51°9.184 2°37.152 16.5349 0.99944 6.721194 -2.458615
2012-04-19 11:45:08 51°9.186 2°37.153 16.5462 0.984814 6.615191 -2.458615
2012-04-19 11:46:08 51°9.184 2°37.146 16.5611 0.982857 6.601037 -2.458615
2012-04-19 11:47:08 51°9.18 2°37.141 16.5723 0.984608 6.614092 -2.458615
2012-04-19 11:48:08 51°9.173 2°37.142 16.5764 1.009947 6.797468 -2.458615
2012-04-19 11:49:08 51°9.165 2°37.141 16.5881 0.986565 6.62825 -2.458615
2012-04-19 11:50:08 51°9.166 2°37.14 16.6076 0.989037 6.64653 -2.458615
2012-04-19 11:51:08 51°9.172 2°37.139 16.6183 1.001295 6.735289 -2.458615
2012-04-19 11:52:08 51°9.181 2°37.139 16.6328 0.979561 6.577981 -2.458615
2012-04-19 11:53:08 51°9.191 2°37.141 16.6382 0.987183 6.633505 -2.458615
2012-04-19 11:54:08 51°9.2 2°37.147 16.6542 1.006754 6.77512 -2.458615
2012-04-19 11:55:08 51°9.204 2°37.155 16.6692 1.02169 6.883606 -2.458615
2012-04-19 11:56:07 51°9.188 2°37.157 16.6537 1.01623 6.843849 -2.458615
2012-04-19 11:57:08 51°9.158 2°37.136 16.6743 1.017054 6.849828 -2.458615
2012-04-19 11:58:07 51°9.151 2°37.132 16.6888 1.01963 6.868652 -2.458615
2012-04-19 11:59:08 51°9.153 2°37.137 16.7082 0.998616 6.716284 -2.458615
2012-04-19 12:00:08 51°9.158 2°37.145 16.7275 1.012213 6.814841 -2.458615
2012-04-19 12:01:08 51°9.165 2°37.151 16.732 1.00387 6.754348 -2.458615
2012-04-19 12:02:08 51°9.176 2°37.154 16.7471 0.990788 6.659466 -2.458615
2012-04-19 12:03:08 51°9.188 2°37.154 16.7602 1.012007 6.813481 -2.458615
2012-04-19 12:04:08 51°9.196 2°37.155 16.7679 0.984093 6.611148 -2.458615
2012-04-19 12:05:08 51°9.206 2°37.14 16.7476 0.97781 6.56545 -2.458615
2012-04-19 12:06:08 51°9.248 2°37.061 16.7845 0.950207 6.366403 -2.458615
2012-04-19 12:07:07 51°9.327 2°36.85 16.7222 1.005621 6.76704 -2.458615
2012-04-19 12:08:08 51°9.468 2°36.628 16.703 1.014994 6.835016 -2.458615
2012-04-19 12:09:08 51°9.638 2°36.456 16.7651 0.974926 6.54499 -2.458615
2012-04-19 12:10:08 51°9.804 2°36.275 16.7949 0.999852 6.724974 -2.458615
2012-04-19 12:11:08 51°9.979 2°36.117 16.7933 0.993775 6.682144 -2.458615
2012-04-19 12:12:08 51°10.186 2°36.049 16.8386 1.034669 6.979122 -2.458615
2012-04-19 12:13:08 51°10.398 2°36.027 16.8462 1.152322 7.839119 -2.458615
2012-04-19 12:14:07 51°10.609 2°36.068 16.8725 1.025295 6.908422 -2.458615
2012-04-19 12:15:08 51°10.827 2°36.134 16.9157 1.175402 8.006733 -2.458615
2012-04-19 12:16:08 51°11.036 2°36.223 16.9301 1.080202 7.319881 -2.458615
2012-04-19 12:17:08 51°11.238 2°36.359 16.9612 1.112758 7.553209 -2.458615
2012-04-19 12:18:08 51°11.436 2°36.506 16.9804 1.018291 6.868273 -2.458615
2012-04-19 12:19:08 51°11.639 2°36.63 17.0011 0.965245 6.486287 -2.458615
2012-04-19 12:20:08 51°11.827 2°36.808 17.0319 1.082572 7.339518 -2.458615
2012-04-19 12:21:08 51°12.011 2°36.998 17.0381 0.932596 6.249241 -2.458615
2012-04-19 12:22:08 51°12.204 2°37.164 17.0676 1.098952 7.458342 -2.458615
2012-04-19 12:23:08 51°12.389 2°37.355 17.0837 0.983887 6.622315 -2.458615
2012-04-19 12:24:08 51°12.554 2°37.589 17.1056 1.119352 7.605866 -2.458615
2012-04-19 12:25:08 51°12.68 2°37.879 17.1298 1.694376 11.925265 -2.458615
2012-04-19 12:26:08 51°12.793 2°38.181 17.0992 1.093904 7.421392 -2.458615
2012-04-19 12:27:08 51°12.909 2°38.482 17.153 1.101013 7.479929 -2.458615
2012-04-19 12:28:08 51°13.025 2°38.783 17.1559 1.128315 7.684968 -2.458615
2012-04-19 12:29:08 51°13.106 2°39.11 17.1083 1.056096 7.154355 -2.458615
2012-04-19 12:30:08 51°13.187 2°39.439 17.1998 1.141813 7.783002 -2.458615
2012-04-19 12:31:08 51°13.268 2°39.769 17.1856 0.965966 6.499202 -2.458615
2012-04-19 12:32:08 51°13.356 2°40.095 17.2209 1.145419 7.817119 -2.458615
2012-04-19 12:33:08 51°13.439 2°40.423 17.2499 1.333697 9.214157 -2.458615
2012-04-19 12:34:08 51°13.528 2°40.752 17.2456 1.057332 7.165651 -2.458615
2012-04-19 12:35:08 51°13.615 2°41.082 17.2272 1.004488 6.780611 -2.458615
2012-04-19 12:36:08 51°13.702 2°41.415 17.2752 1.014892 6.859282 -2.458615
2012-04-19 12:37:08 51°13.79 2°41.748 17.2904 1.036112 7.016029 -2.458615
2012-04-19 12:38:08 51°13.885 2°42.079 17.306 1.00799 6.811336 -2.458615
2012-04-19 12:39:08 51°13.976 2°42.411 17.3097 0.973279 6.559842 -2.458615
2012-04-19 12:40:08 51°14.056 2°42.749 17.3355 1.056921 7.169166 -2.458615
2012-04-19 12:41:08 51°14.119 2°43.094 17.356 1.101116 7.493576 -2.458615
2012-04-19 12:42:08 51°14.163 2°43.441 17.3598 1.087105 7.390189 -2.458615
2012-04-19 12:43:08 51°14.21 2°43.786 17.3687 1.064235 7.222383 -2.458615
2012-04-19 12:44:08 51°14.267 2°44.129 17.3769 1.06238 7.209245 -2.458615
2012-04-19 12:45:08 51°14.316 2°44.472 17.3947 1.050431 7.12158 -2.458615
2012-04-19 12:46:08 51°14.367 2°44.813 17.4136 1.013038 6.849713 -2.458615
2012-04-19 12:47:08 51°14.427 2°45.147 17.4293 1.058878 7.181631 -2.458615
2012-04-19 12:48:08 51°14.473 2°45.483 17.4408 1.080512 7.344042 -2.458615
2012-04-19 12:49:08 51°14.525 2°45.819 17.4477 1.033845 6.997968 -2.458615
2012-04-19 12:50:08 51°14.578 2°46.158 17.4549 1.040232 7.04792 -2.458615
2012-04-19 12:51:08 51°14.631 2°46.497 17.4751 1.000883 6.762293 -2.458615
2012-04-19 12:52:08 51°14.694 2°46.837 17.4915 1.067737 7.250745 -2.458615
2012-04-19 12:53:08 51°14.749 2°47.183 17.4907 0.965348 6.50463 -2.458615
2012-04-19 12:54:08 51°14.775 2°47.533 17.5221 1.086899 7.391753 -2.458615
2012-04-19 12:55:08 51°14.798 2°47.877 17.5383 1.144183 7.812963 -2.458615
2012-04-19 12:56:08 51°14.83 2°48.218 17.5439 1.13357 7.734775 -2.458615
2012-04-19 12:57:07 51°14.872 2°48.553 17.5545 1.134085 7.737648 -2.458615
2012-04-19 12:58:08 51°14.905 2°48.903 17.5603 1.089887 7.41323 -2.458615
2012-04-19 12:59:08 51°14.926 2°49.253 17.5706 1.025399 6.941321 -2.458615
2012-04-19 13:00:08 51°14.95 2°49.602 17.5685 0.992849 6.704509 -2.458615
2012-04-19 13:01:08 51°14.988 2°49.947 17.5967 1.129346 7.70306 -2.458615
2012-04-19 13:02:08 51°15.032 2°50.288 17.5859 1.063205 7.217276 -2.458615
2012-04-19 13:03:08 51°15.012 2°50.627 17.6008 1.086384 7.388121 -2.458615
2012-04-19 13:04:08 51°14.992 2°50.97 17.5943 1.079997 7.339685 -2.458615
2012-04-19 13:05:08 51°14.983 2°51.316 17.6259 1.06475 7.228873 -2.458615
2012-04-19 13:06:08 51°14.987 2°51.658 13.9403 1.041365 7.058292 -2.458615
2012-04-19 13:07:08 51°14.999 2°52.002 14.9729 1.015201 6.867105 -2.458615
2012-04-19 13:08:07 51°15.015 2°52.339 15.2157 1.030961 6.982321 -2.458615
2012-04-19 13:09:08 51°15.034 2°52.684 15.1867 1.043529 7.074798 -2.458615
2012-04-19 13:10:07 51°15.053 2°53.018 15.3698 1.040644 7.053723 -2.458615
2012-04-19 13:11:08 51°15.065 2°53.366 15.9709 1.035288 7.015294 -2.458615
2012-04-19 13:12:08 51°15.023 2°53.697 15.5345 1.122752 7.657419 -2.458615
2012-04-19 13:13:08 51°14.949 2°54.007 15.6371 1.074228 7.30074 -2.458615
2012-04-19 13:14:08 51°14.866 2°54.313 15.6529 1.051358 7.130333 -2.458615
2012-04-19 13:15:08 51°14.773 2°54.608 15.7219 1.774735 12.582124 -2.458615
2012-04-19 13:16:08 51°14.659 2°54.87 15.7393 1.092565 7.439076 -2.458615
2012-04-19 13:17:07 51°14.515 2°55.068 15.6093 1.430183 9.958435 -2.458615
2012-04-19 13:18:09 51°14.362 2°55.222 15.3851 1.107813 7.557281 -2.458615
2012-04-19 13:19:11 51°14.229 2°55.334 15.2393 1.04425 7.091312 -2.458615
2012-04-19 13:20:11 51°14.108 2°55.428 15.2808 1.058672 7.198517 -2.458615
2012-04-19 13:21:11 51°14 2°55.507 15.7804 1.027665 6.971669 -2.458615
2012-04-19 13:22:11 51°13.91 2°55.575 15.7426 1.027871 6.97359 -2.458615
2012-04-19 13:23:11 51°13.82 2°55.643 16.0156 1.0186 6.906526 -2.458615
2012-04-19 13:24:11 51°13.736 2°55.728 15.9068 1.021485 6.928012 -2.458615
2012-04-19 13:25:11 51°13.683 2°55.834 15.9832 1.023545 6.943069 -2.458615
2012-04-19 13:26:11 51°13.65 2°55.936 16.0134 1.027974 6.97559 -2.458615
2012-04-19 13:27:11 51°13.638 2°56.016 16.0264 1.023236 6.940811 -2.458615